Elk City, Oklahoma
Current Conditions -  °F | °C
As of 7:15 AM on Thursday 23 Oct 2014 (Local Time) from KELK Reporting Station
Haze Haze  
Wind Chill: 55°   Ceiling: Unl
Heat Index: 55°   Visibility: 3mi
Dew Point: 55°   Wind: 5mph
Humidity: 100%   Direction: 190°S
Pressure: 30.13"   Gusts: NA
Location:  35.41°N, 99.42°W
Report Text: KELK 231215Z AUTO 19004KT 3SM BR CLR 13/13 A3013 RMK AO2
Loading
Personal Weather Stations






























Interactive Weather Map
Tropical Storm Tracking
New forecast layout! Learn more

10-Day Weather Forecast

Advertisements
Track Severe Weather on mobile